STANS weather

Stans Field
Cotton Plant, Arkansas, United States

Public forecast

Using degrees Fahrenheit for public forecast. Weather courtesy of forecast.io.

METAR (pilot weather report)

Closest report is Searcy Municipal Airport, 27.1 nm (50.1 km) WNW. Retrieved 2019/07/21 17:56 UTC (50 minutes ago):

KSRC 211756Z AUTO 00000KT 10SM FEW034 34/24 A2996 RMK AO2 SLP146 T03390244 10344 20244 58010

TAF (pilot weather forecast)

Closest forecast is Little Rock Air Force Base, 44.1 nm (81.7 km) W. Retrieved 2019/07/21 15:06 UTC (4 hours ago):

TAF TAF KLRF 211500Z 2115/2221 VRB06KT 9999 FEW025 QNH2996INS BECMG 2117/2118 24009KT 9999 SCT035 QNH2990INS BECMG 2215/2216 25010G15KT 9999 SCT070 QNH2983INS TEMPO 2220/2221 30012G18KT 8000 -TSRA BKN040CB TX36/2121Z TN25/2211Z